Cape Newenham, Alaska
Current Conditions -  °F | °C
As of 10:55 AM on Tuesday 21 Oct 2014 (Local Time) from PAEH Reporting Station
Overcast Overcast  
Wind Chill: 27°   Ceiling: 6500
Heat Index: 27°   Visibility: 10mi
Dew Point: 23°   Wind: 3mph
Humidity: 85%   Direction: 110°ESE
Pressure: 29.28"   Gusts: NA
Location:  58.65°N, 162.06°W
Report Text: PAEH 211855Z AUTO 11003KT 10SM OVC065 M03/M05 A2928 RMK AO2 SLP924 T10271049
Loading
Personal Weather Stations






























Interactive Weather Map
Tropical Storm Tracking
New forecast layout! Learn more

10-Day Weather Forecast

Advertisements
Track Severe Weather on mobile